sensor_id;sensor_type;location;lat;lon;timestamp;P1;durP1;ratioP1;P2;durP2;ratioP2
52740;SDS011;38634;52.138;9.912;2024-02-04T00:00:21;13.85;;;4.68;;
52740;SDS011;38634;52.138;9.912;2024-02-04T00:03:06;13.57;;;4.97;;
52740;SDS011;38634;52.138;9.912;2024-02-04T00:05:51;8.45;;;3.65;;
52740;SDS011;38634;52.138;9.912;2024-02-04T00:08:35;11.57;;;4.07;;
52740;SDS011;38634;52.138;9.912;2024-02-04T00:11:20;10.77;;;4.20;;
52740;SDS011;38634;52.138;9.912;2024-02-04T00:14:05;10.98;;;4.13;;
52740;SDS011;38634;52.138;9.912;2024-02-04T00:16:50;10.20;;;3.70;;
52740;SDS011;38634;52.138;9.912;2024-02-04T00:19:34;12.43;;;4.47;;
52740;SDS011;38634;52.138;9.912;2024-02-04T00:22:19;9.77;;;3.95;;
52740;SDS011;38634;52.138;9.912;2024-02-04T00:25:03;11.98;;;4.10;;
52740;SDS011;38634;52.138;9.912;2024-02-04T00:27:48;12.07;;;4.22;;
52740;SDS011;38634;52.138;9.912;2024-02-04T00:30:32;12.23;;;4.07;;
52740;SDS011;38634;52.138;9.912;2024-02-04T00:33:17;13.35;;;4.60;;
52740;SDS011;38634;52.138;9.912;2024-02-04T00:36:02;10.75;;;3.78;;
52740;SDS011;38634;52.138;9.912;2024-02-04T00:38:46;11.18;;;3.92;;
52740;SDS011;38634;52.138;9.912;2024-02-04T00:41:31;13.80;;;4.78;;
52740;SDS011;38634;52.138;9.912;2024-02-04T00:44:16;12.60;;;4.45;;
52740;SDS011;38634;52.138;9.912;2024-02-04T00:47:00;15.00;;;4.78;;
52740;SDS011;38634;52.138;9.912;2024-02-04T00:49:45;14.10;;;4.38;;
52740;SDS011;38634;52.138;9.912;2024-02-04T00:52:29;13.10;;;4.28;;
52740;SDS011;38634;52.138;9.912;2024-02-04T00:55:14;15.38;;;4.55;;
52740;SDS011;38634;52.138;9.912;2024-02-04T00:57:58;14.70;;;5.03;;
52740;SDS011;38634;52.138;9.912;2024-02-04T01:00:45;15.07;;;5.10;;
52740;SDS011;38634;52.138;9.912;2024-02-04T01:03:30;13.57;;;4.68;;
52740;SDS011;38634;52.138;9.912;2024-02-04T01:06:15;14.10;;;5.10;;
52740;SDS011;38634;52.138;9.912;2024-02-04T01:08:59;11.00;;;3.83;;
52740;SDS011;38634;52.138;9.912;2024-02-04T01:11:44;9.48;;;3.60;;
52740;SDS011;38634;52.138;9.912;2024-02-04T01:14:29;8.80;;;3.45;;
52740;SDS011;38634;52.138;9.912;2024-02-04T01:17:13;14.55;;;4.28;;
52740;SDS011;38634;52.138;9.912;2024-02-04T01:19:58;14.10;;;4.65;;
52740;SDS011;38634;52.138;9.912;2024-02-04T01:22:42;14.18;;;4.50;;
52740;SDS011;38634;52.138;9.912;2024-02-04T01:25:27;13.52;;;4.80;;
52740;SDS011;38634;52.138;9.912;2024-02-04T01:28:11;11.68;;;3.90;;
52740;SDS011;38634;52.138;9.912;2024-02-04T01:30:56;22.77;;;7.07;;
52740;SDS011;38634;52.138;9.912;2024-02-04T01:33:40;11.98;;;4.30;;
52740;SDS011;38634;52.138;9.912;2024-02-04T01:36:25;13.85;;;4.82;;
52740;SDS011;38634;52.138;9.912;2024-02-04T01:39:10;11.85;;;4.38;;
52740;SDS011;38634;52.138;9.912;2024-02-04T01:41:54;13.13;;;4.50;;
52740;SDS011;38634;52.138;9.912;2024-02-04T01:44:39;9.77;;;3.70;;
52740;SDS011;38634;52.138;9.912;2024-02-04T01:47:24;10.00;;;4.18;;
52740;SDS011;38634;52.138;9.912;2024-02-04T01:50:08;14.63;;;3.97;;
52740;SDS011;38634;52.138;9.912;2024-02-04T01:52:53;12.45;;;4.25;;
52740;SDS011;38634;52.138;9.912;2024-02-04T01:55:38;12.15;;;4.55;;
52740;SDS011;38634;52.138;9.912;2024-02-04T01:58:23;12.52;;;4.43;;
52740;SDS011;38634;52.138;9.912;2024-02-04T02:01:08;21.20;;;6.75;;
52740;SDS011;38634;52.138;9.912;2024-02-04T02:03:53;9.93;;;3.42;;
52740;SDS011;38634;52.138;9.912;2024-02-04T02:06:37;11.00;;;3.92;;
52740;SDS011;38634;52.138;9.912;2024-02-04T02:09:25;13.18;;;4.93;;
52740;SDS011;38634;52.138;9.912;2024-02-04T02:12:14;12.82;;;4.57;;
52740;SDS011;38634;52.138;9.912;2024-02-04T02:15:39;12.73;;;5.05;;
52740;SDS011;38634;52.138;9.912;2024-02-04T02:18:31;12.85;;;4.80;;
52740;SDS011;38634;52.138;9.912;2024-02-04T02:24:43;13.98;;;4.40;;
52740;SDS011;38634;52.138;9.912;2024-02-04T02:27:28;14.65;;;5.15;;
52740;SDS011;38634;52.138;9.912;2024-02-04T02:30:13;14.02;;;4.78;;
52740;SDS011;38634;52.138;9.912;2024-02-04T02:32:58;13.40;;;4.43;;
52740;SDS011;38634;52.138;9.912;2024-02-04T02:35:44;13.00;;;4.25;;
52740;SDS011;38634;52.138;9.912;2024-02-04T02:38:46;16.65;;;5.00;;
52740;SDS011;38634;52.138;9.912;2024-02-04T02:41:41;15.68;;;4.93;;
52740;SDS011;38634;52.138;9.912;2024-02-04T02:44:26;13.25;;;4.50;;
52740;SDS011;38634;52.138;9.912;2024-02-04T02:47:12;16.77;;;5.28;;
52740;SDS011;38634;52.138;9.912;2024-02-04T02:49:59;15.30;;;4.57;;
52740;SDS011;38634;52.138;9.912;2024-02-04T02:52:45;10.73;;;4.10;;
52740;SDS011;38634;52.138;9.912;2024-02-04T02:55:29;13.68;;;4.63;;
52740;SDS011;38634;52.138;9.912;2024-02-04T02:58:14;14.18;;;4.88;;
52740;SDS011;38634;52.138;9.912;2024-02-04T03:00:59;22.48;;;7.22;;
52740;SDS011;38634;52.138;9.912;2024-02-04T03:03:43;12.43;;;4.10;;
52740;SDS011;38634;52.138;9.912;2024-02-04T03:06:28;11.52;;;4.07;;
52740;SDS011;38634;52.138;9.912;2024-02-04T03:09:12;13.57;;;4.47;;
52740;SDS011;38634;52.138;9.912;2024-02-04T03:11:57;13.32;;;4.55;;
52740;SDS011;38634;52.138;9.912;2024-02-04T03:14:41;13.32;;;5.22;;
52740;SDS011;38634;52.138;9.912;2024-02-04T03:17:26;10.63;;;4.15;;
52740;SDS011;38634;52.138;9.912;2024-02-04T03:20:11;10.18;;;4.20;;
52740;SDS011;38634;52.138;9.912;2024-02-04T03:22:55;11.38;;;4.00;;
52740;SDS011;38634;52.138;9.912;2024-02-04T03:25:40;10.50;;;4.10;;
52740;SDS011;38634;52.138;9.912;2024-02-04T03:28:25;13.63;;;5.63;;
52740;SDS011;38634;52.138;9.912;2024-02-04T09:07:57;8.55;;;3.22;;
52740;SDS011;38634;52.138;9.912;2024-02-04T09:10:41;12.35;;;4.40;;
52740;SDS011;38634;52.138;9.912;2024-02-04T09:13:26;5.93;;;3.30;;
52740;SDS011;38634;52.138;9.912;2024-02-04T09:16:10;6.00;;;3.58;;
52740;SDS011;38634;52.138;9.912;2024-02-04T09:18:55;6.70;;;3.08;;
52740;SDS011;38634;52.138;9.912;2024-02-04T09:21:39;6.47;;;3.40;;
52740;SDS011;38634;52.138;9.912;2024-02-04T09:24:24;5.18;;;3.03;;
52740;SDS011;38634;52.138;9.912;2024-02-04T09:27:09;5.18;;;3.08;;
52740;SDS011;38634;52.138;9.912;2024-02-04T09:29:53;6.13;;;3.33;;
52740;SDS011;38634;52.138;9.912;2024-02-04T09:32:39;7.95;;;3.45;;
52740;SDS011;38634;52.138;9.912;2024-02-04T09:35:23;10.05;;;4.10;;
52740;SDS011;38634;52.138;9.912;2024-02-04T09:38:08;7.88;;;3.42;;
52740;SDS011;38634;52.138;9.912;2024-02-04T09:40:53;10.25;;;3.88;;
52740;SDS011;38634;52.138;9.912;2024-02-04T09:43:37;6.38;;;2.85;;
52740;SDS011;38634;52.138;9.912;2024-02-04T09:46:23;6.47;;;3.22;;
52740;SDS011;38634;52.138;9.912;2024-02-04T09:49:08;6.70;;;2.80;;
52740;SDS011;38634;52.138;9.912;2024-02-04T09:51:54;8.27;;;4.07;;
52740;SDS011;38634;52.138;9.912;2024-02-04T09:54:45;8.13;;;3.15;;
52740;SDS011;38634;52.138;9.912;2024-02-04T09:57:32;7.88;;;3.30;;
52740;SDS011;38634;52.138;9.912;2024-02-04T10:00:19;13.32;;;4.45;;
52740;SDS011;38634;52.138;9.912;2024-02-04T10:03:06;7.35;;;3.65;;
52740;SDS011;38634;52.138;9.912;2024-02-04T10:05:51;7.32;;;3.13;;
52740;SDS011;38634;52.138;9.912;2024-02-04T10:08:36;7.97;;;3.08;;
52740;SDS011;38634;52.138;9.912;2024-02-04T10:11:22;11.45;;;4.03;;
52740;SDS011;38634;52.138;9.912;2024-02-04T10:14:06;8.07;;;3.13;;
52740;SDS011;38634;52.138;9.912;2024-02-04T10:16:51;11.20;;;4.25;;
52740;SDS011;38634;52.138;9.912;2024-02-04T10:19:36;8.27;;;3.50;;
52740;SDS011;38634;52.138;9.912;2024-02-04T10:22:20;30.83;;;9.25;;
52740;SDS011;38634;52.138;9.912;2024-02-04T10:25:05;24.98;;;8.02;;
52740;SDS011;38634;52.138;9.912;2024-02-04T10:27:57;31.05;;;9.82;;
52740;SDS011;38634;52.138;9.912;2024-02-04T10:30:42;22.90;;;7.10;;
52740;SDS011;38634;52.138;9.912;2024-02-04T10:33:26;23.30;;;7.18;;
52740;SDS011;38634;52.138;9.912;2024-02-04T10:36:15;22.65;;;7.22;;
52740;SDS011;38634;52.138;9.912;2024-02-04T10:38:59;26.45;;;8.32;;
52740;SDS011;38634;52.138;9.912;2024-02-04T10:41:51;28.05;;;9.13;;
52740;SDS011;38634;52.138;9.912;2024-02-04T10:44:37;17.85;;;5.82;;
52740;SDS011;38634;52.138;9.912;2024-02-04T10:47:23;30.20;;;9.25;;
52740;SDS011;38634;52.138;9.912;2024-02-04T10:50:13;26.65;;;8.43;;
52740;SDS011;38634;52.138;9.912;2024-02-04T10:52:59;17.23;;;6.03;;
52740;SDS011;38634;52.138;9.912;2024-02-04T10:55:51;32.45;;;9.88;;
52740;SDS011;38634;52.138;9.912;2024-02-04T10:58:42;18.42;;;5.80;;
52740;SDS011;38634;52.138;9.912;2024-02-04T11:01:27;22.85;;;6.95;;
52740;SDS011;38634;52.138;9.912;2024-02-04T11:04:12;33.92;;;9.80;;
52740;SDS011;38634;52.138;9.912;2024-02-04T11:06:58;28.52;;;9.02;;
52740;SDS011;38634;52.138;9.912;2024-02-04T11:09:45;23.33;;;6.85;;
52740;SDS011;38634;52.138;9.912;2024-02-04T11:12:33;28.00;;;8.15;;
52740;SDS011;38634;52.138;9.912;2024-02-04T11:15:19;46.90;;;10.10;;
52740;SDS011;38634;52.138;9.912;2024-02-04T11:21:21;20.20;;;6.82;;
52740;SDS011;38634;52.138;9.912;2024-02-04T11:24:37;19.95;;;6.35;;
52740;SDS011;38634;52.138;9.912;2024-02-04T11:27:52;30.58;;;9.45;;
52740;SDS011;38634;52.138;9.912;2024-02-04T11:30:37;36.05;;;11.45;;
52740;SDS011;38634;52.138;9.912;2024-02-04T11:33:22;20.20;;;6.82;;
52740;SDS011;38634;52.138;9.912;2024-02-04T11:36:07;18.25;;;6.00;;
52740;SDS011;38634;52.138;9.912;2024-02-04T11:38:57;24.85;;;8.48;;
52740;SDS011;38634;52.138;9.912;2024-02-04T11:41:45;21.67;;;7.03;;
52740;SDS011;38634;52.138;9.912;2024-02-04T11:44:33;23.65;;;7.10;;
52740;SDS011;38634;52.138;9.912;2024-02-04T11:47:25;28.40;;;9.50;;
52740;SDS011;38634;52.138;9.912;2024-02-04T11:50:10;12.03;;;4.57;;
52740;SDS011;38634;52.138;9.912;2024-02-04T11:53:01;16.17;;;5.50;;
52740;SDS011;38634;52.138;9.912;2024-02-04T11:55:51;16.35;;;5.47;;
52740;SDS011;38634;52.138;9.912;2024-02-04T11:58:36;18.60;;;6.15;;
52740;SDS011;38634;52.138;9.912;2024-02-04T12:01:21;23.02;;;7.85;;
52740;SDS011;38634;52.138;9.912;2024-02-04T12:04:10;27.42;;;9.68;;
52740;SDS011;38634;52.138;9.912;2024-02-04T12:06:56;17.83;;;6.60;;
52740;SDS011;38634;52.138;9.912;2024-02-04T12:09:41;15.63;;;5.38;;
52740;SDS011;38634;52.138;9.912;2024-02-04T12:12:26;24.20;;;8.23;;
52740;SDS011;38634;52.138;9.912;2024-02-04T12:15:10;23.63;;;7.97;;
52740;SDS011;38634;52.138;9.912;2024-02-04T12:17:55;22.08;;;7.88;;
52740;SDS011;38634;52.138;9.912;2024-02-04T12:20:49;27.67;;;9.18;;
52740;SDS011;38634;52.138;9.912;2024-02-04T12:23:34;24.65;;;8.05;;
52740;SDS011;38634;52.138;9.912;2024-02-04T12:26:18;15.75;;;5.65;;
52740;SDS011;38634;52.138;9.912;2024-02-04T12:29:03;19.85;;;6.25;;
52740;SDS011;38634;52.138;9.912;2024-02-04T12:31:48;25.65;;;8.65;;
52740;SDS011;38634;52.138;9.912;2024-02-04T12:34:32;25.08;;;8.80;;
52740;SDS011;38634;52.138;9.912;2024-02-04T12:37:17;20.30;;;6.93;;
52740;SDS011;38634;52.138;9.912;2024-02-04T12:40:02;21.65;;;7.47;;
52740;SDS011;38634;52.138;9.912;2024-02-04T12:42:55;21.05;;;6.95;;
52740;SDS011;38634;52.138;9.912;2024-02-04T12:45:41;28.27;;;9.40;;
52740;SDS011;38634;52.138;9.912;2024-02-04T12:48:25;18.02;;;6.40;;
52740;SDS011;38634;52.138;9.912;2024-02-04T12:51:11;21.38;;;7.22;;
52740;SDS011;38634;52.138;9.912;2024-02-04T12:56:54;20.25;;;7.03;;
52740;SDS011;38634;52.138;9.912;2024-02-04T12:59:39;25.80;;;9.07;;
52740;SDS011;38634;52.138;9.912;2024-02-04T13:02:23;26.27;;;8.73;;
52740;SDS011;38634;52.138;9.912;2024-02-04T13:05:08;23.70;;;8.20;;
52740;SDS011;38634;52.138;9.912;2024-02-04T13:07:59;18.83;;;6.25;;
52740;SDS011;38634;52.138;9.912;2024-02-04T13:10:45;31.75;;;10.65;;
52740;SDS011;38634;52.138;9.912;2024-02-04T13:13:41;16.90;;;5.85;;
52740;SDS011;38634;52.138;9.912;2024-02-04T13:16:25;28.05;;;9.32;;
52740;SDS011;38634;52.138;9.912;2024-02-04T13:19:10;27.48;;;9.57;;
52740;SDS011;38634;52.138;9.912;2024-02-04T13:21:55;20.75;;;6.50;;
52740;SDS011;38634;52.138;9.912;2024-02-04T13:24:40;20.17;;;6.60;;
52740;SDS011;38634;52.138;9.912;2024-02-04T13:27:24;26.45;;;8.73;;
52740;SDS011;38634;52.138;9.912;2024-02-04T13:30:09;29.90;;;9.77;;
52740;SDS011;38634;52.138;9.912;2024-02-04T13:32:55;21.10;;;7.13;;
52740;SDS011;38634;52.138;9.912;2024-02-04T13:35:45;21.35;;;7.82;;
52740;SDS011;38634;52.138;9.912;2024-02-04T13:38:32;28.63;;;9.05;;
52740;SDS011;38634;52.138;9.912;2024-02-04T13:41:17;22.30;;;7.47;;
52740;SDS011;38634;52.138;9.912;2024-02-04T13:44:02;19.45;;;6.82;;
52740;SDS011;38634;52.138;9.912;2024-02-04T13:46:46;23.08;;;7.47;;
52740;SDS011;38634;52.138;9.912;2024-02-04T13:49:31;31.80;;;10.38;;
52740;SDS011;38634;52.138;9.912;2024-02-04T13:52:15;27.50;;;9.13;;
52740;SDS011;38634;52.138;9.912;2024-02-04T13:55:00;16.70;;;5.90;;
52740;SDS011;38634;52.138;9.912;2024-02-04T13:57:45;19.73;;;6.75;;
52740;SDS011;38634;52.138;9.912;2024-02-04T14:00:29;38.30;;;11.40;;
52740;SDS011;38634;52.138;9.912;2024-02-04T14:03:14;26.50;;;8.13;;
52740;SDS011;38634;52.138;9.912;2024-02-04T14:05:58;18.80;;;5.97;;
52740;SDS011;38634;52.138;9.912;2024-02-04T14:08:47;19.25;;;6.38;;
52740;SDS011;38634;52.138;9.912;2024-02-04T14:11:31;31.77;;;10.15;;
52740;SDS011;38634;52.138;9.912;2024-02-04T14:14:16;34.35;;;10.45;;
52740;SDS011;38634;52.138;9.912;2024-02-04T14:17:01;18.02;;;5.82;;
52740;SDS011;38634;52.138;9.912;2024-02-04T14:19:45;17.25;;;5.88;;
52740;SDS011;38634;52.138;9.912;2024-02-04T14:22:32;24.23;;;8.40;;
52740;SDS011;38634;52.138;9.912;2024-02-04T14:25:17;23.13;;;7.97;;
52740;SDS011;38634;52.138;9.912;2024-02-04T14:28:02;12.55;;;4.40;;
52740;SDS011;38634;52.138;9.912;2024-02-04T14:30:47;21.17;;;7.10;;
52740;SDS011;38634;52.138;9.912;2024-02-04T14:33:32;25.90;;;8.23;;
52740;SDS011;38634;52.138;9.912;2024-02-04T14:36:17;31.88;;;10.45;;
52740;SDS011;38634;52.138;9.912;2024-02-04T14:39:01;18.08;;;5.47;;
52740;SDS011;38634;52.138;9.912;2024-02-04T14:41:46;20.83;;;6.35;;
52740;SDS011;38634;52.138;9.912;2024-02-04T14:44:31;33.08;;;10.55;;
52740;SDS011;38634;52.138;9.912;2024-02-04T14:47:15;29.83;;;9.52;;
52740;SDS011;38634;52.138;9.912;2024-02-04T14:50:00;20.02;;;6.30;;
52740;SDS011;38634;52.138;9.912;2024-02-04T14:52:44;16.38;;;5.57;;
52740;SDS011;38634;52.138;9.912;2024-02-04T14:55:29;28.00;;;9.35;;
52740;SDS011;38634;52.138;9.912;2024-02-04T14:58:14;27.30;;;8.27;;
52740;SDS011;38634;52.138;9.912;2024-02-04T15:00:59;31.15;;;9.27;;
52740;SDS011;38634;52.138;9.912;2024-02-04T15:03:44;20.08;;;6.55;;
52740;SDS011;38634;52.138;9.912;2024-02-04T15:06:30;25.95;;;8.00;;
52740;SDS011;38634;52.138;9.912;2024-02-04T15:09:15;29.60;;;8.90;;
52740;SDS011;38634;52.138;9.912;2024-02-04T15:12:00;24.60;;;6.95;;
52740;SDS011;38634;52.138;9.912;2024-02-04T15:14:46;17.10;;;5.75;;
52740;SDS011;38634;52.138;9.912;2024-02-04T15:17:31;27.45;;;9.55;;
52740;SDS011;38634;52.138;9.912;2024-02-04T15:20:17;33.45;;;9.88;;
52740;SDS011;38634;52.138;9.912;2024-02-04T15:23:03;21.00;;;6.32;;
52740;SDS011;38634;52.138;9.912;2024-02-04T15:25:48;15.10;;;5.05;;
52740;SDS011;38634;52.138;9.912;2024-02-04T15:28:33;29.77;;;9.50;;
52740;SDS011;38634;52.138;9.912;2024-02-04T15:31:18;33.20;;;10.20;;
52740;SDS011;38634;52.138;9.912;2024-02-04T15:34:03;16.65;;;5.10;;
52740;SDS011;38634;52.138;9.912;2024-02-04T15:36:49;19.83;;;6.47;;
52740;SDS011;38634;52.138;9.912;2024-02-04T15:39:34;32.63;;;11.48;;
52740;SDS011;38634;52.138;9.912;2024-02-04T15:42:20;33.85;;;10.10;;
52740;SDS011;38634;52.138;9.912;2024-02-04T15:45:06;18.25;;;6.20;;
52740;SDS011;38634;52.138;9.912;2024-02-04T15:47:52;18.92;;;6.28;;
52740;SDS011;38634;52.138;9.912;2024-02-04T15:50:38;27.17;;;8.70;;
52740;SDS011;38634;52.138;9.912;2024-02-04T15:53:22;28.65;;;8.35;;
52740;SDS011;38634;52.138;9.912;2024-02-04T15:56:07;16.15;;;5.22;;
52740;SDS011;38634;52.138;9.912;2024-02-04T15:58:54;24.52;;;8.38;;
52740;SDS011;38634;52.138;9.912;2024-02-04T16:01:51;20.48;;;6.20;;
52740;SDS011;38634;52.138;9.912;2024-02-04T16:04:37;21.27;;;6.85;;
52740;SDS011;38634;52.138;9.912;2024-02-04T16:07:22;31.67;;;9.52;;
52740;SDS011;38634;52.138;9.912;2024-02-04T16:10:07;33.95;;;9.85;;
52740;SDS011;38634;52.138;9.912;2024-02-04T16:12:54;25.60;;;7.30;;
52740;SDS011;38634;52.138;9.912;2024-02-04T16:15:43;26.35;;;7.90;;
52740;SDS011;38634;52.138;9.912;2024-02-04T16:18:31;27.77;;;8.05;;
52740;SDS011;38634;52.138;9.912;2024-02-04T16:21:16;21.95;;;6.50;;
52740;SDS011;38634;52.138;9.912;2024-02-04T16:24:01;20.30;;;6.65;;
52740;SDS011;38634;52.138;9.912;2024-02-04T16:26:45;34.65;;;10.02;;
52740;SDS011;38634;52.138;9.912;2024-02-04T16:29:30;32.97;;;9.48;;
52740;SDS011;38634;52.138;9.912;2024-02-04T16:32:14;20.40;;;6.30;;
52740;SDS011;38634;52.138;9.912;2024-02-04T16:34:59;19.63;;;6.20;;
52740;SDS011;38634;52.138;9.912;2024-02-04T16:37:44;25.88;;;8.32;;
52740;SDS011;38634;52.138;9.912;2024-02-04T16:40:28;34.10;;;10.32;;
52740;SDS011;38634;52.138;9.912;2024-02-04T16:43:13;27.92;;;8.07;;
52740;SDS011;38634;52.138;9.912;2024-02-04T16:45:57;17.38;;;5.65;;
52740;SDS011;38634;52.138;9.912;2024-02-04T16:48:42;17.15;;;5.47;;
52740;SDS011;38634;52.138;9.912;2024-02-04T16:51:27;31.23;;;9.65;;
52740;SDS011;38634;52.138;9.912;2024-02-04T16:54:11;29.60;;;9.20;;
52740;SDS011;38634;52.138;9.912;2024-02-04T16:56:56;17.35;;;6.00;;
52740;SDS011;38634;52.138;9.912;2024-02-04T16:59:41;23.70;;;7.65;;
52740;SDS011;38634;52.138;9.912;2024-02-04T17:02:29;29.90;;;9.50;;
52740;SDS011;38634;52.138;9.912;2024-02-04T17:05:14;25.67;;;7.43;;
52740;SDS011;38634;52.138;9.912;2024-02-04T17:07:59;18.85;;;6.03;;
52740;SDS011;38634;52.138;9.912;2024-02-04T17:10:44;31.38;;;9.52;;
52740;SDS011;38634;52.138;9.912;2024-02-04T17:13:31;32.47;;;9.48;;
52740;SDS011;38634;52.138;9.912;2024-02-04T17:16:18;24.02;;;7.32;;
52740;SDS011;38634;52.138;9.912;2024-02-04T17:22:20;35.38;;;9.98;;
52740;SDS011;38634;52.138;9.912;2024-02-04T17:25:07;34.92;;;10.63;;
52740;SDS011;38634;52.138;9.912;2024-02-04T17:27:56;18.40;;;5.85;;
52740;SDS011;38634;52.138;9.912;2024-02-04T17:30:42;37.60;;;10.50;;
52740;SDS011;38634;52.138;9.912;2024-02-04T17:33:28;36.00;;;9.73;;
52740;SDS011;38634;52.138;9.912;2024-02-04T17:36:13;19.80;;;6.35;;
52740;SDS011;38634;52.138;9.912;2024-02-04T17:38:58;21.10;;;6.63;;
52740;SDS011;38634;52.138;9.912;2024-02-04T17:41:43;25.70;;;7.75;;
52740;SDS011;38634;52.138;9.912;2024-02-04T17:44:28;33.42;;;9.82;;
52740;SDS011;38634;52.138;9.912;2024-02-04T17:47:13;23.15;;;7.05;;
52740;SDS011;38634;52.138;9.912;2024-02-04T17:49:57;19.23;;;6.15;;
52740;SDS011;38634;52.138;9.912;2024-02-04T17:52:42;31.33;;;9.20;;
52740;SDS011;38634;52.138;9.912;2024-02-04T17:55:27;35.30;;;10.13;;
52740;SDS011;38634;52.138;9.912;2024-02-04T17:58:11;26.25;;;8.50;;
52740;SDS011;38634;52.138;9.912;2024-02-04T18:00:57;25.50;;;7.82;;
52740;SDS011;38634;52.138;9.912;2024-02-04T18:03:41;30.88;;;9.13;;
52740;SDS011;38634;52.138;9.912;2024-02-04T18:06:26;39.22;;;11.18;;
52740;SDS011;38634;52.138;9.912;2024-02-04T18:09:11;19.65;;;6.35;;
52740;SDS011;38634;52.138;9.912;2024-02-04T18:11:57;22.30;;;7.72;;
52740;SDS011;38634;52.138;9.912;2024-02-04T18:14:41;10.00;;;3.83;;
52740;SDS011;38634;52.138;9.912;2024-02-04T18:17:27;14.60;;;5.13;;
52740;SDS011;38634;52.138;9.912;2024-02-04T18:20:12;14.43;;;5.35;;
52740;SDS011;38634;52.138;9.912;2024-02-04T18:22:57;12.40;;;4.85;;
52740;SDS011;38634;52.138;9.912;2024-02-04T18:25:42;11.20;;;4.15;;
52740;SDS011;38634;52.138;9.912;2024-02-04T18:28:26;12.02;;;3.95;;
52740;SDS011;38634;52.138;9.912;2024-02-04T18:31:12;9.35;;;3.47;;
52740;SDS011;38634;52.138;9.912;2024-02-04T18:33:58;10.43;;;3.67;;
52740;SDS011;38634;52.138;9.912;2024-02-04T18:36:43;9.73;;;3.72;;
52740;SDS011;38634;52.138;9.912;2024-02-04T18:39:28;9.40;;;3.70;;
52740;SDS011;38634;52.138;9.912;2024-02-04T18:42:14;9.73;;;3.40;;
52740;SDS011;38634;52.138;9.912;2024-02-04T18:44:58;11.18;;;3.72;;
52740;SDS011;38634;52.138;9.912;2024-02-04T18:47:43;8.73;;;3.03;;
52740;SDS011;38634;52.138;9.912;2024-02-04T18:50:27;12.95;;;4.18;;
52740;SDS011;38634;52.138;9.912;2024-02-04T18:53:12;10.63;;;3.90;;
52740;SDS011;38634;52.138;9.912;2024-02-04T18:55:57;11.75;;;3.80;;
52740;SDS011;38634;52.138;9.912;2024-02-04T18:58:42;10.27;;;3.53;;
52740;SDS011;38634;52.138;9.912;2024-02-04T19:01:32;7.03;;;2.83;;
52740;SDS011;38634;52.138;9.912;2024-02-04T19:04:18;9.95;;;3.60;;
52740;SDS011;38634;52.138;9.912;2024-02-04T19:07:04;8.75;;;3.60;;
52740;SDS011;38634;52.138;9.912;2024-02-04T19:09:48;10.45;;;3.42;;
52740;SDS011;38634;52.138;9.912;2024-02-04T19:12:34;7.65;;;2.85;;
52740;SDS011;38634;52.138;9.912;2024-02-04T19:15:22;13.98;;;4.18;;
52740;SDS011;38634;52.138;9.912;2024-02-04T19:18:06;11.43;;;4.03;;
52740;SDS011;38634;52.138;9.912;2024-02-04T19:20:52;11.05;;;3.78;;
52740;SDS011;38634;52.138;9.912;2024-02-04T19:23:37;12.98;;;4.15;;
52740;SDS011;38634;52.138;9.912;2024-02-04T19:26:28;10.82;;;4.60;;
52740;SDS011;38634;52.138;9.912;2024-02-04T19:29:13;10.43;;;4.05;;
52740;SDS011;38634;52.138;9.912;2024-02-04T19:31:59;12.27;;;6.57;;
52740;SDS011;38634;52.138;9.912;2024-02-04T19:34:44;8.98;;;5.40;;
52740;SDS011;38634;52.138;9.912;2024-02-04T19:37:29;10.80;;;5.68;;
52740;SDS011;38634;52.138;9.912;2024-02-04T19:40:14;12.30;;;4.63;;
52740;SDS011;38634;52.138;9.912;2024-02-04T19:42:59;13.15;;;4.53;;
52740;SDS011;38634;52.138;9.912;2024-02-04T19:45:43;10.68;;;3.70;;
52740;SDS011;38634;52.138;9.912;2024-02-04T19:48:28;12.27;;;4.13;;
52740;SDS011;38634;52.138;9.912;2024-02-04T19:51:12;11.30;;;3.75;;
52740;SDS011;38634;52.138;9.912;2024-02-04T19:53:58;8.93;;;3.28;;
52740;SDS011;38634;52.138;9.912;2024-02-04T19:56:43;8.35;;;3.25;;
52740;SDS011;38634;52.138;9.912;2024-02-04T19:59:27;10.05;;;3.50;;
52740;SDS011;38634;52.138;9.912;2024-02-04T20:02:12;11.63;;;3.35;;
52740;SDS011;38634;52.138;9.912;2024-02-04T20:04:57;8.23;;;3.17;;
52740;SDS011;38634;52.138;9.912;2024-02-04T20:07:41;8.82;;;3.15;;
52740;SDS011;38634;52.138;9.912;2024-02-04T20:10:26;9.38;;;3.30;;
52740;SDS011;38634;52.138;9.912;2024-02-04T20:13:11;10.73;;;3.88;;
52740;SDS011;38634;52.138;9.912;2024-02-04T20:15:55;9.50;;;3.47;;
52740;SDS011;38634;52.138;9.912;2024-02-04T20:18:40;8.13;;;2.90;;
52740;SDS011;38634;52.138;9.912;2024-02-04T20:21:24;10.60;;;3.88;;
52740;SDS011;38634;52.138;9.912;2024-02-04T20:24:09;8.10;;;3.05;;
52740;SDS011;38634;52.138;9.912;2024-02-04T20:26:54;11.18;;;3.75;;
52740;SDS011;38634;52.138;9.912;2024-02-04T20:29:38;9.00;;;3.22;;
52740;SDS011;38634;52.138;9.912;2024-02-04T20:32:23;9.30;;;3.30;;
52740;SDS011;38634;52.138;9.912;2024-02-04T20:35:07;9.23;;;3.63;;
52740;SDS011;38634;52.138;9.912;2024-02-04T20:37:52;8.30;;;3.53;;
52740;SDS011;38634;52.138;9.912;2024-02-04T20:40:42;9.45;;;3.75;;
52740;SDS011;38634;52.138;9.912;2024-02-04T20:43:26;10.95;;;3.72;;
52740;SDS011;38634;52.138;9.912;2024-02-04T20:46:11;8.45;;;3.00;;
52740;SDS011;38634;52.138;9.912;2024-02-04T20:48:56;9.13;;;3.35;;
52740;SDS011;38634;52.138;9.912;2024-02-04T20:51:40;8.50;;;3.28;;
52740;SDS011;38634;52.138;9.912;2024-02-04T20:54:25;11.35;;;3.95;;
52740;SDS011;38634;52.138;9.912;2024-02-04T20:57:10;10.55;;;3.65;;
52740;SDS011;38634;52.138;9.912;2024-02-04T20:59:55;9.90;;;3.42;;
52740;SDS011;38634;52.138;9.912;2024-02-04T21:02:40;8.27;;;2.88;;
52740;SDS011;38634;52.138;9.912;2024-02-04T21:05:26;11.90;;;3.78;;
52740;SDS011;38634;52.138;9.912;2024-02-04T21:08:11;9.48;;;3.40;;
52740;SDS011;38634;52.138;9.912;2024-02-04T21:10:55;15.75;;;5.00;;
52740;SDS011;38634;52.138;9.912;2024-02-04T21:13:40;9.10;;;3.30;;
52740;SDS011;38634;52.138;9.912;2024-02-04T21:16:24;11.82;;;3.53;;
52740;SDS011;38634;52.138;9.912;2024-02-04T21:19:09;11.85;;;3.75;;
52740;SDS011;38634;52.138;9.912;2024-02-04T21:21:53;9.40;;;3.55;;
52740;SDS011;38634;52.138;9.912;2024-02-04T21:24:38;10.93;;;3.67;;
52740;SDS011;38634;52.138;9.912;2024-02-04T21:27:23;6.57;;;2.75;;
52740;SDS011;38634;52.138;9.912;2024-02-04T21:30:07;7.85;;;3.20;;
52740;SDS011;38634;52.138;9.912;2024-02-04T21:32:53;7.22;;;3.28;;
52740;SDS011;38634;52.138;9.912;2024-02-04T21:35:38;7.05;;;2.80;;
52740;SDS011;38634;52.138;9.912;2024-02-04T21:38:23;12.70;;;4.93;;
52740;SDS011;38634;52.138;9.912;2024-02-04T21:41:07;20.02;;;8.95;;
52740;SDS011;38634;52.138;9.912;2024-02-04T21:43:52;7.88;;;3.58;;
52740;SDS011;38634;52.138;9.912;2024-02-04T21:46:36;12.63;;;4.90;;
52740;SDS011;38634;52.138;9.912;2024-02-04T21:49:21;8.13;;;3.35;;
52740;SDS011;38634;52.138;9.912;2024-02-04T21:52:06;6.60;;;3.05;;
52740;SDS011;38634;52.138;9.912;2024-02-04T21:54:50;9.50;;;3.35;;
52740;SDS011;38634;52.138;9.912;2024-02-04T21:57:35;9.57;;;3.70;;
52740;SDS011;38634;52.138;9.912;2024-02-04T22:00:19;8.10;;;3.17;;
52740;SDS011;38634;52.138;9.912;2024-02-04T22:03:04;7.72;;;3.17;;
52740;SDS011;38634;52.138;9.912;2024-02-04T22:05:48;7.82;;;3.03;;
52740;SDS011;38634;52.138;9.912;2024-02-04T22:08:33;9.00;;;3.13;;
52740;SDS011;38634;52.138;9.912;2024-02-04T22:11:18;8.77;;;3.35;;
52740;SDS011;38634;52.138;9.912;2024-02-04T22:14:02;7.93;;;3.15;;